Time,TemperatureF,DewpointF,PressureIn,WindDirection,WindDirectionDegrees,WindSpeedMPH,WindSpeedGustMPH,Humidity,HourlyPrecipIn,Conditions,Clouds,dailyrainin,SoftwareType,DateUTC
2013-11-30 00:02:00,8.8,-5.6,30.24,SSW,202,0.0,0.0,51,0.00,,---,0.00,VWS V14.01,2013-11-30 05:02:00,
2013-11-30 00:03:00,8.6,-5.8,30.24,SSW,202,0.0,0.0,51,0.00,,---,0.00,VWS V14.01,2013-11-30 05:03:00,
2013-11-30 00:06:00,8.6,-5.8,30.24,SSW,202,0.0,0.0,51,0.00,,---,0.00,VWS V14.01,2013-11-30 05:06:00,
2013-11-30 00:08:00,8.4,-6.0,30.24,SSW,202,0.0,0.0,51,0.00,,---,0.00,VWS V14.01,2013-11-30 05:08:00,
2013-11-30 00:10:00,8.4,-6.0,30.24,SSW,202,0.0,0.0,51,0.00,,---,0.00,VWS V14.01,2013-11-30 05:10:00,
2013-11-30 00:16:00,8.4,-6.0,30.24,SSW,202,0.0,0.0,51,0.00,,---,0.00,VWS V14.01,2013-11-30 05:16:00,
2013-11-30 00:21:00,8.4,-6.0,30.24,SSW,202,0.0,0.0,51,0.00,,---,0.00,VWS V14.01,2013-11-30 05:21:00,
2013-11-30 00:27:00,8.4,-6.0,30.24,SSW,202,0.0,0.0,51,0.00,,---,0.00,VWS V14.01,2013-11-30 05:27:00,
2013-11-30 00:33:00,8.4,-6.0,30.24,SSW,202,0.0,0.0,51,0.00,,---,0.00,VWS V14.01,2013-11-30 05:33:00,
2013-11-30 00:38:00,8.4,-6.0,30.24,SSW,202,0.0,0.0,51,0.00,,---,0.00,VWS V14.01,2013-11-30 05:38:00,
2013-11-30 00:44:00,7.9,-6.5,30.24,SSW,202,0.0,0.0,51,0.00,,---,0.00,VWS V14.01,2013-11-30 05:44:00,
2013-11-30 00:49:00,7.9,-6.5,30.24,SSW,202,0.0,0.0,51,0.00,,---,0.00,VWS V14.01,2013-11-30 05:49:00,
2013-11-30 00:55:00,7.9,-6.5,30.24,SSW,202,0.0,0.0,51,0.00,,---,0.00,VWS V14.01,2013-11-30 05:55:00,
2013-11-30 01:01:00,7.7,-6.7,30.24,SSW,202,0.0,0.0,51,0.00,,---,0.00,VWS V14.01,2013-11-30 06:01:00,
2013-11-30 01:06:00,7.5,-6.8,30.24,SSW,202,0.0,0.0,51,0.00,,---,0.00,VWS V14.01,2013-11-30 06:06:00,
2013-11-30 01:11:00,7.3,-7.0,30.24,SSW,202,0.0,0.0,51,0.00,,---,0.00,VWS V14.01,2013-11-30 06:11:00,
2013-11-30 01:16:00,7.3,-7.0,30.24,SSW,202,0.0,0.0,51,0.00,,---,0.00,VWS V14.01,2013-11-30 06:16:00,
2013-11-30 01:22:00,7.5,-6.8,30.24,SSW,202,0.0,0.0,51,0.00,,---,0.00,VWS V14.01,2013-11-30 06:22:00,
2013-11-30 01:28:00,7.5,-6.8,30.24,SSW,202,0.0,0.0,51,0.00,,---,0.00,VWS V14.01,2013-11-30 06:28:00,
2013-11-30 01:33:00,7.5,-6.8,30.24,SSW,202,0.0,0.0,51,0.00,,---,0.00,VWS V14.01,2013-11-30 06:33:00,
2013-11-30 01:38:00,7.5,-6.8,30.24,SSW,202,0.0,0.0,51,0.00,,---,0.00,VWS V14.01,2013-11-30 06:38:00,
2013-11-30 01:44:00,7.3,-7.0,30.24,SSW,202,0.0,0.0,51,0.00,,---,0.00,VWS V14.01,2013-11-30 06:44:00,
2013-11-30 01:50:00,7.2,-7.2,30.24,SSW,202,0.0,0.0,51,0.00,,---,0.00,VWS V14.01,2013-11-30 06:50:00,
2013-11-30 01:55:00,7.0,-7.3,30.24,SSW,202,0.0,0.0,51,0.00,,---,0.00,VWS V14.01,2013-11-30 06:55:00,
2013-11-30 02:01:00,7.0,-7.3,30.24,SSW,202,0.0,0.0,51,0.00,,---,0.00,VWS V14.01,2013-11-30 07:01:00,
2013-11-30 02:06:00,7.0,-7.3,30.24,SSW,202,0.0,0.0,51,0.00,,---,0.00,VWS V14.01,2013-11-30 07:06:00,
2013-11-30 02:11:00,6.8,-7.5,30.27,SSW,202,0.0,0.0,51,0.00,,---,0.00,VWS V14.01,2013-11-30 07:11:00,
2013-11-30 02:16:00,6.8,-7.5,30.27,SSW,202,0.0,0.0,51,0.00,,---,0.00,VWS V14.01,2013-11-30 07:16:00,
2013-11-30 02:22:00,6.8,-7.5,30.27,SSW,202,0.0,0.0,51,0.00,,---,0.00,VWS V14.01,2013-11-30 07:22:00,
2013-11-30 02:27:00,6.4,-7.8,30.27,SSW,202,0.0,0.0,51,0.00,,---,0.00,VWS V14.01,2013-11-30 07:27:00,
2013-11-30 02:33:00,6.4,-7.8,30.27,SSW,202,0.0,0.0,51,0.00,,---,0.00,VWS V14.01,2013-11-30 07:33:00,
2013-11-30 02:39:00,6.4,-7.8,30.27,SSW,202,0.0,0.0,51,0.00,,---,0.00,VWS V14.01,2013-11-30 07:39:00,
2013-11-30 02:44:00,6.3,-8.0,30.27,SSW,202,0.0,0.0,51,0.00,,---,0.00,VWS V14.01,2013-11-30 07:44:00,
2013-11-30 02:49:00,6.3,-8.0,30.27,SSW,202,0.0,0.0,51,0.00,,---,0.00,VWS V14.01,2013-11-30 07:49:00,
2013-11-30 02:54:00,6.3,-8.0,30.27,SSW,202,0.0,0.0,51,0.00,,---,0.00,VWS V14.01,2013-11-30 07:54:00,
2013-11-30 03:00:00,6.1,-8.2,30.27,SSW,202,0.0,0.0,51,0.00,,---,0.00,VWS V14.01,2013-11-30 08:00:00,
2013-11-30 03:05:00,6.3,-8.0,30.27,SSW,202,0.0,0.0,51,0.00,,---,0.00,VWS V14.01,2013-11-30 08:05:00,
2013-11-30 03:10:00,6.1,-8.2,30.27,SSW,202,0.0,0.0,51,0.00,,---,0.00,VWS V14.01,2013-11-30 08:10:00,
2013-11-30 03:15:00,6.1,-8.2,30.27,SSW,202,0.0,0.0,51,0.00,,---,0.00,VWS V14.01,2013-11-30 08:15:00,
2013-11-30 03:21:00,6.1,-8.2,30.27,SSW,202,0.0,0.0,51,0.00,,---,0.00,VWS V14.01,2013-11-30 08:21:00,
2013-11-30 03:33:00,6.1,-8.2,30.27,SSW,202,0.0,0.0,51,0.00,,---,0.00,VWS V14.01,2013-11-30 08:33:00,
2013-11-30 03:39:00,5.9,-8.3,30.27,SSW,202,0.0,0.0,51,0.00,,---,0.00,VWS V14.01,2013-11-30 08:39:00,
2013-11-30 03:44:00,5.9,-8.3,30.27,SSW,202,0.0,0.0,51,0.00,,---,0.00,VWS V14.01,2013-11-30 08:44:00,
2013-11-30 03:49:00,5.9,-8.3,30.27,SSW,202,0.0,0.0,51,0.00,,---,0.00,VWS V14.01,2013-11-30 08:49:00,
2013-11-30 03:54:00,5.7,-8.5,30.27,SSW,202,0.0,0.0,51,0.00,,---,0.00,VWS V14.01,2013-11-30 08:54:00,
2013-11-30 03:59:00,5.9,-8.3,30.27,SSW,202,0.0,0.0,51,0.00,,---,0.00,VWS V14.01,2013-11-30 08:59:00,
2013-11-30 04:04:00,5.7,-8.5,30.27,SSW,202,0.0,0.0,51,0.00,,---,0.00,VWS V14.01,2013-11-30 09:04:00,
2013-11-30 04:10:00,5.5,-8.7,30.27,SSW,202,0.0,0.0,51,0.00,,---,0.00,VWS V14.01,2013-11-30 09:10:00,
2013-11-30 04:15:00,5.4,-8.8,30.27,SSW,202,0.0,0.0,51,0.00,,---,0.00,VWS V14.01,2013-11-30 09:15:00,
2013-11-30 04:20:00,5.4,-8.8,30.27,SSW,202,0.0,0.0,51,0.00,,---,0.00,VWS V14.01,2013-11-30 09:20:00,
2013-11-30 04:33:00,5.2,-9.0,30.27,SSW,202,0.0,0.0,51,0.00,,---,0.00,VWS V14.01,2013-11-30 09:33:00,
2013-11-30 04:40:00,5.4,-8.8,30.27,SSW,202,0.0,0.0,51,0.00,,---,0.00,VWS V14.01,2013-11-30 09:40:00,
2013-11-30 04:45:00,5.2,-9.0,30.27,SSW,202,0.0,0.0,51,0.00,,---,0.00,VWS V14.01,2013-11-30 09:45:00,
2013-11-30 04:50:00,5.2,-9.0,30.27,SSW,202,0.0,0.0,51,0.00,,---,0.00,VWS V14.01,2013-11-30 09:50:00,
2013-11-30 04:55:00,5.0,-9.2,30.27,SSW,202,0.0,0.0,51,0.00,,---,0.00,VWS V14.01,2013-11-30 09:55:00,
2013-11-30 05:00:00,5.0,-9.2,30.27,SSW,202,0.0,0.0,51,0.00,,---,0.00,VWS V14.01,2013-11-30 10:00:00,
2013-11-30 05:06:00,4.8,-9.3,30.27,SSW,202,0.0,0.0,51,0.00,,---,0.00,VWS V14.01,2013-11-30 10:06:00,
2013-11-30 05:11:00,4.6,-9.5,30.27,SSW,202,0.0,0.0,51,0.00,,---,0.00,VWS V14.01,2013-11-30 10:11:00,
2013-11-30 05:27:00,4.5,-9.7,30.27,SSW,202,0.0,0.0,51,0.00,,---,0.00,VWS V14.01,2013-11-30 10:27:00,
2013-11-30 05:32:00,4.5,-9.7,30.27,SSW,202,0.0,0.0,51,0.00,,---,0.00,VWS V14.01,2013-11-30 10:32:00,
2013-11-30 05:37:00,4.5,-9.7,30.27,SSW,202,0.0,0.0,51,0.00,,---,0.00,VWS V14.01,2013-11-30 10:37:00,
2013-11-30 05:43:00,4.5,-9.7,30.27,SSW,202,0.0,0.0,51,0.00,,---,0.00,VWS V14.01,2013-11-30 10:43:00,
2013-11-30 05:48:00,4.3,-9.8,30.27,SSW,202,0.0,0.0,51,0.00,,---,0.00,VWS V14.01,2013-11-30 10:48:00,
2013-11-30 05:53:00,4.1,-10.0,30.27,SSW,202,0.0,0.0,51,0.00,,---,0.00,VWS V14.01,2013-11-30 10:53:00,
2013-11-30 05:59:00,4.1,-10.0,30.27,SSW,202,0.0,0.0,51,0.00,,---,0.00,VWS V14.01,2013-11-30 10:59:00,
2013-11-30 06:04:00,4.1,-10.0,30.27,SSW,202,0.0,0.0,51,0.00,,---,0.00,VWS V14.01,2013-11-30 11:04:00,
2013-11-30 06:09:00,3.9,-10.2,30.27,SSW,202,0.0,0.0,51,0.00,,---,0.00,VWS V14.01,2013-11-30 11:09:00,
2013-11-30 06:14:00,4.1,-10.0,30.27,SSW,202,0.0,0.0,51,0.00,,---,0.00,VWS V14.01,2013-11-30 11:14:00,
2013-11-30 06:19:00,4.1,-10.0,30.27,SSW,202,0.0,0.0,51,0.00,,---,0.00,VWS V14.01,2013-11-30 11:19:00,
2013-11-30 06:24:00,4.1,-10.0,30.30,SSW,202,0.0,0.0,51,0.00,,---,0.00,VWS V14.01,2013-11-30 11:24:00,
2013-11-30 06:29:00,4.1,-10.0,30.30,SSW,202,0.0,0.0,51,0.00,,---,0.00,VWS V14.01,2013-11-30 11:29:00,
2013-11-30 06:35:00,4.1,-10.0,30.30,SSW,202,0.0,0.0,51,0.00,,---,0.00,VWS V14.01,2013-11-30 11:35:00,
2013-11-30 06:40:00,3.9,-10.2,30.27,SSW,202,0.0,0.0,51,0.00,,---,0.00,VWS V14.01,2013-11-30 11:40:00,
2013-11-30 06:45:00,3.7,-10.3,30.27,SSW,202,0.0,0.0,51,0.00,,---,0.00,VWS V14.01,2013-11-30 11:45:00,
2013-11-30 06:51:00,3.7,-10.3,30.27,SSW,202,0.0,0.0,51,0.00,,---,0.00,VWS V14.01,2013-11-30 11:51:00,
2013-11-30 06:56:00,3.6,-10.5,30.27,SSW,202,0.0,0.0,51,0.00,,---,0.00,VWS V14.01,2013-11-30 11:56:00,
2013-11-30 07:02:00,3.4,-10.7,30.27,SSW,202,0.0,0.0,51,0.00,,---,0.00,VWS V14.01,2013-11-30 12:02:00,
2013-11-30 07:07:00,3.7,-10.3,30.27,SSW,202,0.0,0.0,51,0.00,,---,0.00,VWS V14.01,2013-11-30 12:07:00,
2013-11-30 07:12:00,3.7,-10.3,30.27,SSW,202,0.0,0.0,51,0.00,,---,0.00,VWS V14.01,2013-11-30 12:12:00,
2013-11-30 07:17:00,3.7,-10.3,30.27,SSW,202,0.0,0.0,51,0.00,,---,0.00,VWS V14.01,2013-11-30 12:17:00,
2013-11-30 07:22:00,3.7,-10.3,30.27,SSW,202,0.0,0.0,51,0.00,,---,0.00,VWS V14.01,2013-11-30 12:22:00,
2013-11-30 07:28:00,3.7,-10.3,30.30,SSW,202,0.0,0.0,51,0.00,,---,0.00,VWS V14.01,2013-11-30 12:28:00,
2013-11-30 07:33:00,3.9,-10.2,30.30,SSW,202,0.0,0.0,51,0.00,,---,0.00,VWS V14.01,2013-11-30 12:33:00,
2013-11-30 07:39:00,4.1,-10.0,30.30,SSW,202,0.0,0.0,51,0.00,,---,0.00,VWS V14.01,2013-11-30 12:39:00,
2013-11-30 07:44:00,4.1,-10.0,30.30,SSW,202,0.0,0.0,51,0.00,,---,0.00,VWS V14.01,2013-11-30 12:44:00,
2013-11-30 07:49:00,4.1,-10.0,30.30,SSW,202,0.0,0.0,51,0.00,,---,0.00,VWS V14.01,2013-11-30 12:49:00,
2013-11-30 07:54:00,4.5,-9.7,30.30,SSW,202,0.0,0.0,51,0.00,,---,0.00,VWS V14.01,2013-11-30 12:54:00,
2013-11-30 07:59:00,4.8,-9.3,30.30,SSW,202,0.0,0.0,51,0.00,,---,0.00,VWS V14.01,2013-11-30 12:59:00,
2013-11-30 08:05:00,5.4,-8.8,30.30,SSW,202,0.0,0.0,51,0.00,,---,0.00,VWS V14.01,2013-11-30 13:05:00,
2013-11-30 08:10:00,5.5,-8.7,30.30,SSW,202,0.0,0.0,51,0.00,,---,0.00,VWS V14.01,2013-11-30 13:10:00,
2013-11-30 08:15:00,5.7,-8.5,30.30,SSW,202,0.0,0.0,51,0.00,,---,0.00,VWS V14.01,2013-11-30 13:15:00,
2013-11-30 08:20:00,6.1,-8.2,30.30,SSW,202,0.0,0.0,51,0.00,,---,0.00,VWS V14.01,2013-11-30 13:20:00,
2013-11-30 08:26:00,6.4,-7.8,30.30,SSW,202,0.0,0.0,51,0.00,,---,0.00,VWS V14.01,2013-11-30 13:26:00,
2013-11-30 08:31:00,6.8,-7.5,30.30,SSW,202,0.0,0.0,51,0.00,,---,0.00,VWS V14.01,2013-11-30 13:31:00,
2013-11-30 08:37:00,7.0,-7.3,30.30,SSW,202,0.0,0.0,51,0.00,,---,0.00,VWS V14.01,2013-11-30 13:37:00,
2013-11-30 08:42:00,7.5,-6.8,30.30,SSW,202,0.0,0.0,51,0.00,,---,0.00,VWS V14.01,2013-11-30 13:42:00,
2013-11-30 08:47:00,7.9,-6.5,30.30,SSW,202,0.0,0.0,51,0.00,,---,0.00,VWS V14.01,2013-11-30 13:47:00,
2013-11-30 08:52:00,8.1,-6.3,30.30,SSW,202,0.0,0.0,51,0.00,,---,0.00,VWS V14.01,2013-11-30 13:52:00,
2013-11-30 09:08:00,8.6,-5.8,30.30,SSW,202,0.0,0.0,51,0.00,,---,0.00,VWS V14.01,2013-11-30 14:08:00,
2013-11-30 09:13:00,10.0,-4.5,30.30,SSW,202,0.0,0.0,51,0.00,,---,0.00,VWS V14.01,2013-11-30 14:13:00,
2013-11-30 09:19:00,10.8,-3.8,30.30,SSW,202,0.0,0.0,51,0.00,,---,0.00,VWS V14.01,2013-11-30 14:19:00,
2013-11-30 09:25:00,11.1,-3.5,30.30,SSW,202,0.0,0.0,51,0.00,,---,0.00,VWS V14.01,2013-11-30 14:25:00,
2013-11-30 09:33:00,11.7,-3.0,30.30,SSW,202,0.0,0.0,51,0.00,,---,0.00,VWS V14.01,2013-11-30 14:33:00,
2013-11-30 09:40:00,12.4,-2.3,30.30,SSW,202,0.0,0.0,51,0.00,,---,0.00,VWS V14.01,2013-11-30 14:40:00,
2013-11-30 09:45:00,12.7,-2.0,30.30,SSW,202,0.0,0.0,51,0.00,,---,0.00,VWS V14.01,2013-11-30 14:45:00,
2013-11-30 09:50:00,13.1,-1.6,30.30,ENE,68,0.0,1.1,51,0.00,,---,0.00,VWS V14.01,2013-11-30 14:50:00,
2013-11-30 09:55:00,13.6,-1.1,30.27,NE,45,0.0,0.0,51,0.00,,---,0.00,VWS V14.01,2013-11-30 14:55:00,
2013-11-30 10:01:00,13.8,-0.9,30.27,NE,45,0.0,0.0,51,0.00,,---,0.00,VWS V14.01,2013-11-30 15:01:00,
2013-11-30 10:09:00,14.7,4.8,30.27,ESE,112,0.0,0.0,64,0.00,,---,0.00,VWS V14.01,2013-11-30 15:09:00,
2013-11-30 10:14:00,15.1,5.1,30.27,ENE,68,0.0,0.0,64,0.00,,---,0.00,VWS V14.01,2013-11-30 15:14:00,
2013-11-30 10:19:00,15.8,5.4,30.27,NNE,22,0.0,0.0,63,0.00,,---,0.00,VWS V14.01,2013-11-30 15:19:00,
2013-11-30 10:24:00,16.0,5.3,30.27,SW,225,0.0,0.0,62,0.00,,---,0.00,VWS V14.01,2013-11-30 15:24:00,
2013-11-30 10:29:00,16.5,5.8,30.27,ENE,68,0.0,0.0,62,0.00,,---,0.00,VWS V14.01,2013-11-30 15:29:00,
2013-11-30 10:34:00,17.1,6.3,30.27,ESE,112,0.0,0.0,62,0.00,,---,0.00,VWS V14.01,2013-11-30 15:34:00,
2013-11-30 10:39:00,17.1,6.3,30.27,East,90,0.0,0.0,62,0.00,,---,0.00,VWS V14.01,2013-11-30 15:39:00,
2013-11-30 10:44:00,17.6,6.4,30.27,SW,225,0.0,0.0,61,0.00,,---,0.00,VWS V14.01,2013-11-30 15:44:00,
2013-11-30 10:49:00,18.1,6.6,30.27,East,90,0.0,0.0,60,0.00,,---,0.00,VWS V14.01,2013-11-30 15:49:00,
2013-11-30 10:54:00,18.3,6.4,30.27,ENE,68,0.0,0.0,59,0.00,,---,0.00,VWS V14.01,2013-11-30 15:54:00,
2013-11-30 11:00:00,18.9,6.9,30.27,ENE,68,2.7,2.7,59,0.00,,---,0.00,VWS V14.01,2013-11-30 16:00:00,
2013-11-30 11:05:00,19.2,6.9,30.27,ENE,68,0.9,0.9,58,0.00,,---,0.00,VWS V14.01,2013-11-30 16:05:00,
2013-11-30 11:11:00,19.6,6.8,30.27,NE,45,0.0,0.0,57,0.00,,---,0.00,VWS V14.01,2013-11-30 16:11:00,
2013-11-30 11:16:00,19.9,7.2,30.27,NE,45,0.0,0.0,57,0.00,,---,0.00,VWS V14.01,2013-11-30 16:16:00,
2013-11-30 11:21:00,20.3,7.1,30.27,ENE,68,0.0,2.0,56,0.00,,---,0.00,VWS V14.01,2013-11-30 16:21:00,
2013-11-30 11:26:00,20.5,7.3,30.24,South,180,0.0,0.0,56,0.00,,---,0.00,VWS V14.01,2013-11-30 16:26:00,
2013-11-30 11:31:00,20.8,7.6,30.24,NNE,22,0.0,0.0,56,0.00,,---,0.00,VWS V14.01,2013-11-30 16:31:00,
2013-11-30 11:36:00,21.2,8.0,30.24,West,270,0.0,0.0,56,0.00,,---,0.00,VWS V14.01,2013-11-30 16:36:00,
2013-11-30 11:41:00,21.4,7.3,30.24,East,90,0.0,0.0,54,0.00,,---,0.00,VWS V14.01,2013-11-30 16:41:00,
2013-11-30 11:46:00,21.6,7.5,30.24,NNE,22,0.0,0.0,54,0.00,,---,0.00,VWS V14.01,2013-11-30 16:46:00,
2013-11-30 11:51:00,21.9,7.4,30.24,NNE,22,0.0,0.0,53,0.00,,---,0.00,VWS V14.01,2013-11-30 16:51:00,
2013-11-30 11:57:00,22.1,7.6,30.24,NNE,22,0.0,0.0,53,0.00,,---,0.00,VWS V14.01,2013-11-30 16:57:00,
2013-11-30 12:02:00,22.5,7.5,30.24,NNE,22,0.0,0.0,52,0.00,,---,0.00,VWS V14.01,2013-11-30 17:02:00,
2013-11-30 12:07:00,22.6,7.7,30.24,NNE,22,0.0,0.0,52,0.00,,---,0.00,VWS V14.01,2013-11-30 17:07:00,
2013-11-30 12:12:00,22.6,5.9,30.21,NE,45,0.0,0.0,48,0.00,,---,0.00,VWS V14.01,2013-11-30 17:12:00,
2013-11-30 12:17:00,22.8,6.5,30.21,SW,225,0.0,0.0,49,0.00,,---,0.00,VWS V14.01,2013-11-30 17:17:00,
2013-11-30 12:22:00,22.8,6.1,30.21,ENE,68,0.0,0.0,48,0.00,,---,0.00,VWS V14.01,2013-11-30 17:22:00,
2013-11-30 12:27:00,23.0,6.2,30.21,ENE,68,0.0,0.0,48,0.00,,---,0.00,VWS V14.01,2013-11-30 17:27:00,
2013-11-30 12:32:00,23.2,6.4,30.21,NNE,22,0.0,0.0,48,0.00,,---,0.00,VWS V14.01,2013-11-30 17:32:00,
2013-11-30 12:37:00,23.4,6.6,30.21,NNE,22,0.0,0.0,48,0.00,,---,0.00,VWS V14.01,2013-11-30 17:37:00,
2013-11-30 12:42:00,23.7,6.9,30.18,ENE,68,0.0,0.0,48,0.00,,---,0.00,VWS V14.01,2013-11-30 17:42:00,
2013-11-30 12:47:00,23.9,6.6,30.18,ENE,68,0.0,0.0,47,0.00,,---,0.00,VWS V14.01,2013-11-30 17:47:00,
2013-11-30 12:52:00,24.1,6.8,30.18,ENE,68,0.0,0.0,47,0.00,,---,0.00,VWS V14.01,2013-11-30 17:52:00,
2013-11-30 12:57:00,24.3,6.5,30.18,ENE,68,0.0,0.0,46,0.00,,---,0.00,VWS V14.01,2013-11-30 17:57:00,
2013-11-30 13:03:00,24.4,6.6,30.18,ENE,68,0.0,0.0,46,0.00,,---,0.00,VWS V14.01,2013-11-30 18:03:00,
2013-11-30 13:08:00,24.4,6.6,30.18,ENE,68,0.0,0.0,46,0.00,,---,0.00,VWS V14.01,2013-11-30 18:08:00,
2013-11-30 13:13:00,24.6,6.3,30.15,ENE,68,0.0,0.0,45,0.00,,---,0.00,VWS V14.01,2013-11-30 18:13:00,
2013-11-30 13:18:00,24.8,6.5,30.15,ENE,68,0.0,0.0,45,0.00,,---,0.00,VWS V14.01,2013-11-30 18:18:00,
2013-11-30 13:23:00,24.8,6.5,30.15,ENE,68,0.0,0.0,45,0.00,,---,0.00,VWS V14.01,2013-11-30 18:23:00,
2013-11-30 13:28:00,25.0,6.7,30.15,ENE,68,0.0,0.0,45,0.00,,---,0.00,VWS V14.01,2013-11-30 18:28:00,
2013-11-30 13:33:00,25.0,6.7,30.15,ENE,68,0.0,0.0,45,0.00,,---,0.00,VWS V14.01,2013-11-30 18:33:00,
2013-11-30 13:38:00,25.2,6.3,30.15,ENE,68,0.0,0.0,44,0.00,,---,0.00,VWS V14.01,2013-11-30 18:38:00,
2013-11-30 13:43:00,25.3,7.0,30.15,ENE,68,0.0,0.0,45,0.00,,---,0.00,VWS V14.01,2013-11-30 18:43:00,
2013-11-30 13:48:00,25.3,7.0,30.15,ENE,68,0.0,0.0,45,0.00,,---,0.00,VWS V14.01,2013-11-30 18:48:00,
2013-11-30 13:53:00,25.3,7.0,30.15,ENE,68,0.0,0.0,45,0.00,,---,0.00,VWS V14.01,2013-11-30 18:53:00,
2013-11-30 13:58:00,25.3,7.0,30.15,ENE,68,0.0,0.0,45,0.00,,---,0.00,VWS V14.01,2013-11-30 18:58:00,
2013-11-30 14:03:00,25.3,6.5,30.15,SSW,202,0.9,0.9,44,0.00,,---,0.00,VWS V14.01,2013-11-30 19:03:00,
2013-11-30 14:08:00,25.5,6.7,30.15,SSW,202,0.9,0.9,44,0.00,,---,0.00,VWS V14.01,2013-11-30 19:08:00,
2013-11-30 14:13:00,25.5,7.2,30.12,SSW,202,0.9,0.9,45,0.00,,---,0.00,VWS V14.01,2013-11-30 19:13:00,
2013-11-30 14:18:00,25.5,6.7,30.12,ESE,112,0.0,0.0,44,0.00,,---,0.00,VWS V14.01,2013-11-30 19:18:00,
2013-11-30 14:23:00,25.7,6.8,30.12,ESE,112,0.0,0.0,44,0.00,,---,0.00,VWS V14.01,2013-11-30 19:23:00,
2013-11-30 14:28:00,25.7,6.8,30.12,SW,225,0.0,0.0,44,0.00,,---,0.00,VWS V14.01,2013-11-30 19:28:00,
2013-11-30 14:33:00,25.7,6.8,30.12,SW,225,0.0,0.0,44,0.00,,---,0.00,VWS V14.01,2013-11-30 19:33:00,
2013-11-30 14:38:00,25.7,6.8,30.12,SW,225,0.0,0.0,44,0.00,,---,0.00,VWS V14.01,2013-11-30 19:38:00,
2013-11-30 14:43:00,25.7,6.8,30.12,SW,225,0.0,0.0,44,0.00,,---,0.00,VWS V14.01,2013-11-30 19:43:00,
2013-11-30 14:48:00,25.7,6.8,30.12,WSW,248,0.0,0.0,44,0.00,,---,0.00,VWS V14.01,2013-11-30 19:48:00,
2013-11-30 14:53:00,25.7,6.8,30.12,NNE,22,0.0,0.0,44,0.00,,---,0.00,VWS V14.01,2013-11-30 19:53:00,
2013-11-30 14:58:00,25.5,6.7,30.12,NNE,22,0.0,0.0,44,0.00,,---,0.00,VWS V14.01,2013-11-30 19:58:00,
2013-11-30 15:03:00,25.5,6.7,30.12,East,90,0.0,0.0,44,0.00,,---,0.00,VWS V14.01,2013-11-30 20:03:00,
2013-11-30 15:09:00,25.3,6.5,30.12,East,90,0.0,0.0,44,0.00,,---,0.00,VWS V14.01,2013-11-30 20:09:00,
2013-11-30 15:14:00,25.3,6.5,30.12,West,270,0.0,0.0,44,0.00,,---,0.00,VWS V14.01,2013-11-30 20:14:00,
2013-11-30 15:19:00,25.2,6.3,30.12,SE,135,0.0,0.0,44,0.00,,---,0.00,VWS V14.01,2013-11-30 20:19:00,
2013-11-30 15:24:00,25.0,6.2,30.12,NNE,22,0.0,0.0,44,0.00,,---,0.00,VWS V14.01,2013-11-30 20:24:00,
2013-11-30 15:29:00,25.0,6.2,30.12,NNE,22,0.0,0.0,44,0.00,,---,0.00,VWS V14.01,2013-11-30 20:29:00,
2013-11-30 15:34:00,24.8,6.5,30.12,NNE,22,0.0,0.0,45,0.00,,---,0.00,VWS V14.01,2013-11-30 20:34:00,
2013-11-30 15:39:00,24.6,6.3,30.12,SSE,158,0.0,0.0,45,0.00,,---,0.00,VWS V14.01,2013-11-30 20:39:00,
2013-11-30 15:44:00,24.6,6.3,30.12,SSE,158,0.0,0.0,45,0.00,,---,0.00,VWS V14.01,2013-11-30 20:44:00,
2013-11-30 15:49:00,24.4,6.2,30.12,SSE,158,0.0,0.0,45,0.00,,---,0.00,VWS V14.01,2013-11-30 20:49:00,
2013-11-30 15:54:00,24.4,6.2,30.12,SSE,158,0.0,0.0,45,0.00,,---,0.00,VWS V14.01,2013-11-30 20:54:00,
2013-11-30 15:59:00,24.3,6.0,30.12,SSE,158,0.0,0.0,45,0.00,,---,0.00,VWS V14.01,2013-11-30 20:59:00,
2013-11-30 16:04:00,24.1,5.8,30.12,SSE,158,0.0,0.0,45,0.00,,---,0.00,VWS V14.01,2013-11-30 21:04:00,
2013-11-30 16:09:00,23.9,5.7,30.09,SSE,158,0.0,0.0,45,0.00,,---,0.00,VWS V14.01,2013-11-30 21:09:00,
2013-11-30 16:14:00,23.7,5.5,30.09,WSW,248,0.0,0.0,45,0.00,,---,0.00,VWS V14.01,2013-11-30 21:14:00,
2013-11-30 16:19:00,23.5,5.3,30.09,WSW,248,0.0,0.0,45,0.00,,---,0.00,VWS V14.01,2013-11-30 21:19:00,
2013-11-30 16:25:00,23.5,5.3,30.09,WSW,248,0.0,0.0,45,0.00,,---,0.00,VWS V14.01,2013-11-30 21:25:00,
2013-11-30 16:30:00,23.4,5.2,30.09,WSW,248,0.0,0.0,45,0.00,,---,0.00,VWS V14.01,2013-11-30 21:30:00,
2013-11-30 16:35:00,23.4,5.2,30.09,WSW,248,0.0,0.0,45,0.00,,---,0.00,VWS V14.01,2013-11-30 21:35:00,
2013-11-30 16:40:00,23.0,4.8,30.09,WSW,248,0.0,0.0,45,0.00,,---,0.00,VWS V14.01,2013-11-30 21:40:00,
2013-11-30 16:45:00,23.0,4.8,30.09,WSW,248,0.0,0.0,45,0.00,,---,0.00,VWS V14.01,2013-11-30 21:45:00,
2013-11-30 16:50:00,22.8,4.7,30.09,WSW,248,0.0,0.0,45,0.00,,---,0.00,VWS V14.01,2013-11-30 21:50:00,
2013-11-30 16:55:00,22.8,4.7,30.09,WSW,248,0.0,0.0,45,0.00,,---,0.00,VWS V14.01,2013-11-30 21:55:00,
2013-11-30 17:00:00,22.8,4.7,30.09,WSW,248,0.0,0.0,45,0.00,,---,0.00,VWS V14.01,2013-11-30 22:00:00,
2013-11-30 17:05:00,22.8,4.7,30.09,WSW,248,0.0,0.0,45,0.00,,---,0.00,VWS V14.01,2013-11-30 22:05:00,
2013-11-30 17:11:00,22.6,4.5,30.09,WSW,248,0.0,0.0,45,0.00,,---,0.00,VWS V14.01,2013-11-30 22:11:00,
2013-11-30 17:16:00,22.8,4.7,30.09,WSW,248,0.0,0.0,45,0.00,,---,0.00,VWS V14.01,2013-11-30 22:16:00,
2013-11-30 17:21:00,22.6,5.0,30.09,WSW,248,0.0,0.0,46,0.00,,---,0.00,VWS V14.01,2013-11-30 22:21:00,
2013-11-30 17:27:00,22.6,5.0,30.06,WSW,248,0.0,0.0,46,0.00,,---,0.00,VWS V14.01,2013-11-30 22:27:00,
2013-11-30 17:32:00,22.5,5.3,30.06,WSW,248,0.0,0.0,47,0.00,,---,0.00,VWS V14.01,2013-11-30 22:32:00,
2013-11-30 17:37:00,22.5,5.3,30.06,WSW,248,0.0,0.0,47,0.00,,---,0.00,VWS V14.01,2013-11-30 22:37:00,
2013-11-30 17:42:00,22.5,5.3,30.06,WSW,248,0.0,0.0,47,0.00,,---,0.00,VWS V14.01,2013-11-30 22:42:00,
2013-11-30 17:47:00,22.5,5.3,30.06,WSW,248,0.0,0.0,47,0.00,,---,0.00,VWS V14.01,2013-11-30 22:47:00,
2013-11-30 17:53:00,22.5,5.3,30.06,WSW,248,0.0,0.0,47,0.00,,---,0.00,VWS V14.01,2013-11-30 22:53:00,
2013-11-30 17:59:00,22.5,5.3,30.06,WSW,248,0.0,0.0,47,0.00,,---,0.00,VWS V14.01,2013-11-30 22:59:00,
2013-11-30 18:05:00,22.3,5.1,30.06,WSW,248,0.0,0.0,47,0.00,,---,0.00,VWS V14.01,2013-11-30 23:05:00,
2013-11-30 18:10:00,22.1,5.0,30.06,WSW,248,0.0,0.0,47,0.00,,---,0.00,VWS V14.01,2013-11-30 23:10:00,
2013-11-30 18:15:00,22.1,5.0,30.06,WSW,248,0.0,0.0,47,0.00,,---,0.00,VWS V14.01,2013-11-30 23:15:00,
2013-11-30 18:21:00,21.9,4.8,30.06,WSW,248,0.0,0.0,47,0.00,,---,0.00,VWS V14.01,2013-11-30 23:21:00,
2013-11-30 18:26:00,21.9,4.8,30.06,WSW,248,0.0,0.0,47,0.00,,---,0.00,VWS V14.01,2013-11-30 23:26:00,
2013-11-30 18:32:00,21.9,4.8,30.06,WSW,248,0.0,0.0,47,0.00,,---,0.00,VWS V14.01,2013-11-30 23:32:00,
2013-11-30 18:38:00,21.7,4.6,30.06,ENE,68,0.0,0.0,47,0.00,,---,0.00,VWS V14.01,2013-11-30 23:38:00,
2013-11-30 18:43:00,21.6,4.5,30.03,NE,45,0.0,0.0,47,0.00,,---,0.00,VWS V14.01,2013-11-30 23:43:00,
2013-11-30 18:48:00,21.6,4.5,30.03,NE,45,0.0,0.0,47,0.00,,---,0.00,VWS V14.01,2013-11-30 23:48:00,
2013-11-30 18:53:00,21.4,4.3,30.03,ESE,112,0.0,0.0,47,0.00,,---,0.00,VWS V14.01,2013-11-30 23:53:00,
2013-11-30 18:58:00,21.4,4.3,30.03,ENE,68,0.0,0.0,47,0.00,,---,0.00,VWS V14.01,2013-11-30 23:58:00,
2013-11-30 19:03:00,21.4,4.8,30.03,ENE,68,0.0,0.0,48,0.00,,---,0.00,VWS V14.01,2013-12-01 00:03:00,
2013-11-30 19:08:00,21.2,4.6,30.03,NNE,22,0.0,0.0,48,0.00,,---,0.00,VWS V14.01,2013-12-01 00:08:00,
2013-11-30 19:13:00,21.2,4.6,30.03,ENE,68,0.0,0.0,48,0.00,,---,0.00,VWS V14.01,2013-12-01 00:13:00,
2013-11-30 19:19:00,21.2,4.6,30.03,ENE,68,0.0,0.0,48,0.00,,---,0.00,VWS V14.01,2013-12-01 00:19:00,
2013-11-30 19:24:00,21.2,5.0,30.03,East,90,0.0,0.0,49,0.00,,---,0.00,VWS V14.01,2013-12-01 00:24:00,
2013-11-30 19:29:00,21.2,5.0,30.03,NE,45,0.0,0.0,49,0.00,,---,0.00,VWS V14.01,2013-12-01 00:29:00,
2013-11-30 19:34:00,21.2,5.0,30.03,ENE,68,0.0,0.0,49,0.00,,---,0.00,VWS V14.01,2013-12-01 00:34:00,
2013-11-30 19:39:00,21.4,5.2,30.03,ENE,68,0.0,0.0,49,0.00,,---,0.00,VWS V14.01,2013-12-01 00:39:00,
2013-11-30 19:44:00,21.6,5.8,30.03,NE,45,0.0,0.0,50,0.00,,---,0.00,VWS V14.01,2013-12-01 00:44:00,
2013-11-30 19:50:00,21.9,6.1,30.03,ENE,68,0.0,0.0,50,0.00,,---,0.00,VWS V14.01,2013-12-01 00:50:00,
2013-11-30 19:56:00,22.1,6.3,30.03,ENE,68,0.0,0.0,50,0.00,,---,0.00,VWS V14.01,2013-12-01 00:56:00,
2013-11-30 20:01:00,22.3,6.9,30.03,ENE,68,0.0,0.0,51,0.00,,---,0.00,VWS V14.01,2013-12-01 01:01:00,
2013-11-30 20:06:00,22.5,7.1,30.03,ENE,68,0.0,0.0,51,0.00,,---,0.00,VWS V14.01,2013-12-01 01:06:00,
2013-11-30 20:11:00,22.5,7.1,30.00,East,90,0.0,0.0,51,0.00,,---,0.00,VWS V14.01,2013-12-01 01:11:00,
2013-11-30 20:17:00,22.6,7.2,30.00,East,90,0.0,0.0,51,0.00,,---,0.00,VWS V14.01,2013-12-01 01:17:00,
2013-11-30 20:22:00,22.6,7.2,30.00,ENE,68,0.0,0.0,51,0.00,,---,0.00,VWS V14.01,2013-12-01 01:22:00,
2013-11-30 20:27:00,22.6,7.2,30.00,ENE,68,0.0,0.0,51,0.00,,---,0.00,VWS V14.01,2013-12-01 01:27:00,
2013-11-30 20:32:00,22.6,7.7,30.00,ENE,68,0.0,0.0,52,0.00,,---,0.00,VWS V14.01,2013-12-01 01:32:00,
2013-11-30 20:37:00,22.6,7.7,30.00,ENE,68,0.0,0.0,52,0.00,,---,0.00,VWS V14.01,2013-12-01 01:37:00,
2013-11-30 20:43:00,22.6,7.7,30.00,ENE,68,0.0,0.0,52,0.00,,---,0.00,VWS V14.01,2013-12-01 01:43:00,
2013-11-30 20:45:00,22.8,7.8,30.00,NE,45,0.0,0.0,52,0.00,,---,0.00,VWS V14.01,2013-12-01 01:45:00,
2013-11-30 20:50:00,22.8,8.3,30.00,ENE,68,0.0,0.0,53,0.00,,---,0.00,VWS V14.01,2013-12-01 01:50:00,
2013-11-30 20:56:00,23.0,8.4,30.00,ENE,68,0.0,0.0,53,0.00,,---,0.00,VWS V14.01,2013-12-01 01:56:00,
2013-11-30 21:01:00,23.2,8.2,30.00,ENE,68,0.0,0.0,52,0.00,,---,0.00,VWS V14.01,2013-12-01 02:01:00,
2013-11-30 21:06:00,23.4,8.8,30.00,NE,45,0.0,0.0,53,0.00,,---,0.00,VWS V14.01,2013-12-01 02:06:00,
2013-11-30 21:11:00,23.5,8.9,29.97,ENE,68,0.0,0.0,53,0.00,,---,0.00,VWS V14.01,2013-12-01 02:11:00,
2013-11-30 21:17:00,23.5,8.9,29.97,ENE,68,0.0,0.0,53,0.00,,---,0.00,VWS V14.01,2013-12-01 02:17:00,
2013-11-30 21:23:00,23.7,9.1,29.97,ENE,68,0.0,0.0,53,0.00,,---,0.00,VWS V14.01,2013-12-01 02:23:00,
2013-11-30 21:28:00,23.9,9.3,29.97,ENE,68,0.0,0.0,53,0.00,,---,0.00,VWS V14.01,2013-12-01 02:28:00,
2013-11-30 21:34:00,23.9,9.3,29.97,ENE,68,0.0,0.0,53,0.00,,---,0.00,VWS V14.01,2013-12-01 02:34:00,
2013-11-30 21:39:00,24.1,9.4,29.97,ENE,68,0.0,0.0,53,0.00,,---,0.00,VWS V14.01,2013-12-01 02:39:00,
2013-11-30 21:44:00,24.1,9.4,29.97,NE,45,0.0,0.0,53,0.00,,---,0.00,VWS V14.01,2013-12-01 02:44:00,
2013-11-30 21:50:00,24.3,9.6,29.97,NE,45,0.0,0.0,53,0.00,,---,0.00,VWS V14.01,2013-12-01 02:50:00,
2013-11-30 21:56:00,24.3,9.6,29.97,ENE,68,0.0,0.0,53,0.00,,---,0.00,VWS V14.01,2013-12-01 02:56:00,
2013-11-30 22:02:00,24.3,10.0,29.97,ESE,112,0.0,0.0,54,0.00,,---,0.00,VWS V14.01,2013-12-01 03:02:00,
2013-11-30 22:07:00,24.3,10.0,29.97,South,180,0.0,0.0,54,0.00,,---,0.00,VWS V14.01,2013-12-01 03:07:00,
2013-11-30 22:13:00,24.4,10.6,29.94,SSW,202,0.0,0.0,55,0.00,,---,0.00,VWS V14.01,2013-12-01 03:13:00,
2013-11-30 22:19:00,24.4,10.6,29.94,NNW,338,0.0,0.0,55,0.00,,---,0.00,VWS V14.01,2013-12-01 03:19:00,
2013-11-30 22:24:00,24.6,10.8,29.94,South,180,0.0,0.0,55,0.00,,---,0.00,VWS V14.01,2013-12-01 03:24:00,
2013-11-30 22:30:00,24.6,10.8,29.94,ESE,112,0.0,0.0,55,0.00,,---,0.00,VWS V14.01,2013-12-01 03:30:00,
2013-11-30 22:35:00,24.6,10.8,29.94,ENE,68,0.0,0.0,55,0.00,,---,0.00,VWS V14.01,2013-12-01 03:35:00,
2013-11-30 22:41:00,24.8,10.9,29.94,ENE,68,0.0,0.0,55,0.00,,---,0.00,VWS V14.01,2013-12-01 03:41:00,
2013-11-30 22:46:00,24.8,10.9,29.94,ESE,112,0.0,0.0,55,0.00,,---,0.00,VWS V14.01,2013-12-01 03:46:00,
2013-11-30 22:52:00,25.0,11.1,29.94,NNE,22,0.0,0.0,55,0.00,,---,0.00,VWS V14.01,2013-12-01 03:52:00,
2013-11-30 22:58:00,25.0,11.1,29.94,ENE,68,0.0,0.0,55,0.00,,---,0.00,VWS V14.01,2013-12-01 03:58:00,
2013-11-30 23:03:00,25.0,11.1,29.94,SW,225,0.0,0.0,55,0.00,,---,0.00,VWS V14.01,2013-12-01 04:03:00,
2013-11-30 23:08:00,25.0,11.1,29.94,SSW,202,0.0,0.0,55,0.00,,---,0.00,VWS V14.01,2013-12-01 04:08:00,
2013-11-30 23:13:00,25.0,11.1,29.91,NNW,338,0.0,0.0,55,0.00,,---,0.00,VWS V14.01,2013-12-01 04:13:00,
2013-11-30 23:19:00,25.0,11.1,29.91,SW,225,0.0,0.0,55,0.00,,---,0.00,VWS V14.01,2013-12-01 04:19:00,
2013-11-30 23:24:00,25.0,10.7,29.91,ENE,68,0.0,0.0,54,0.00,,---,0.00,VWS V14.01,2013-12-01 04:24:00,
2013-11-30 23:29:00,24.8,10.9,29.91,NE,45,0.0,0.0,55,0.00,,---,0.00,VWS V14.01,2013-12-01 04:29:00,
2013-11-30 23:34:00,24.8,10.9,29.91,West,270,0.0,0.0,55,0.00,,---,0.00,VWS V14.01,2013-12-01 04:34:00,
2013-11-30 23:39:00,24.8,10.9,29.91,WNW,292,0.0,0.0,55,0.00,,---,0.00,VWS V14.01,2013-12-01 04:39:00,
2013-11-30 23:45:00,24.6,10.8,29.91,NE,45,0.0,0.0,55,0.00,,---,0.00,VWS V14.01,2013-12-01 04:45:00,
2013-11-30 23:50:00,24.6,10.8,29.91,East,90,0.0,0.0,55,0.00,,---,0.00,VWS V14.01,2013-12-01 04:50:00,
2013-11-30 23:55:00,24.4,10.6,29.91,ENE,68,0.0,0.0,55,0.00,,---,0.00,VWS V14.01,2013-12-01 04:55:00,